Terminal Aerodrome Forecast
Issued by NWS Pocatello, ID

Home | Current Version | Previous Version | Text Only | Print | Product List | Glossary On
Versions: 1 2 3 4 5 6 7 8 9 10 11 12 13 14 15 16 17 18 19 20 21 22 23 24
109
FTUS45 KPIH 140531
TAFBYI
TAF
KBYI 140531Z 1406/1506 VRB03KT P6SM OVC005
     FM140900 VRB03KT 3SM BR BKN003
     FM141600 VRB05KT 5SM BR SCT003 BKN025
     FM150200 VRB03KT 3SM BR OVC003=

USA.gov is the U.S. government's official web portal to all federal, state and local government web resources and services.